Time;durP1;ratioP1;P1;durP2;ratioP2;P2;SDS_P1;SDS_P2;PMS_P1;PMS_P2;Temp;Humidity;BMP_temperature;BMP_pressure;BME280_temperature;BME280_humidity;BME280_pressure;Samples;Min_cycle;Max_cycle;Signal;HPM_P1;HPM_P2
2021/03/31 00:02:08;;;;;;;5.68;5.03;;;31.40;93.10;;;;;;5067672;28;20237;-51
2021/03/31 00:04:38;;;;;;;6.13;5.53;;;31.40;93.10;;;;;;5069155;28;20199;-50
2021/03/31 00:07:08;;;;;;;6.03;5.53;;;31.40;93.20;;;;;;5067526;28;20292;-51
2021/03/31 00:09:39;;;;;;;7.07;6.32;;;31.40;93.20;;;;;;5068696;28;20207;-54
2021/03/31 00:12:12;;;;;;;7.13;6.45;;;31.50;93.20;;;;;;5068216;28;20358;-51
2021/03/31 00:14:42;;;;;;;7.22;6.50;;;31.50;93.20;;;;;;5068393;28;20213;-52
2021/03/31 00:17:13;;;;;;;8.48;7.13;;;31.50;93.20;;;;;;5062957;28;20201;-51
2021/03/31 00:19:43;;;;;;;8.35;7.57;;;31.50;93.60;;;;;;5066353;28;20213;-50
2021/03/31 00:22:13;;;;;;;9.05;8.10;;;31.60;93.20;;;;;;5069420;28;20201;-52
2021/03/31 00:24:44;;;;;;;8.52;7.72;;;31.60;93.20;;;;;;5053439;28;20209;-54
2021/03/31 00:27:16;;;;;;;9.05;8.25;;;31.70;93.20;;;;;;5053087;28;20238;-51
2021/03/31 00:29:48;;;;;;;10.13;9.23;;;31.70;93.10;;;;;;5053240;28;20231;-52
2021/03/31 00:32:19;;;;;;;10.75;9.68;;;31.70;93.00;;;;;;5064253;28;20546;-50
2021/03/31 00:34:49;;;;;;;10.27;9.48;;;31.80;92.90;;;;;;5068518;28;20190;-52
2021/03/31 00:37:20;;;;;;;10.95;9.98;;;31.80;92.80;;;;;;5069039;28;20567;-51
2021/03/31 00:39:50;;;;;;;11.27;10.20;;;31.90;92.60;;;;;;5067419;28;20569;-54
2021/03/31 00:42:22;;;;;;;10.77;9.77;;;31.90;92.50;;;;;;5053332;28;20267;-52
2021/03/31 00:44:53;;;;;;;9.48;8.70;;;32.00;92.40;;;;;;5053010;28;20256;-49
2021/03/31 00:47:25;;;;;;;12.88;9.25;;;32.00;92.30;;;;;;5067586;28;20637;-51
2021/03/31 00:49:55;;;;;;;9.95;9.15;;;32.10;92.20;;;;;;5067969;28;20715;-51
2021/03/31 00:52:26;;;;;;;9.70;8.70;;;32.10;92.10;;;;;;5053782;28;20252;-50
2021/03/31 00:54:57;;;;;;;10.85;8.23;;;32.20;92.00;;;;;;5052441;28;20277;-54
2021/03/31 00:57:29;;;;;;;9.30;8.45;;;32.20;91.80;;;;;;5065951;28;20205;-51
2021/03/31 00:59:59;;;;;;;11.88;9.98;;;32.20;91.80;;;;;;5068120;28;20213;-52
2021/03/31 01:02:30;;;;;;;10.55;9.60;;;32.30;91.60;;;;;;5066858;28;20202;-53
2021/03/31 01:05:01;;;;;;;9.23;8.32;;;32.30;91.50;;;;;;5058095;28;20200;-52
2021/03/31 01:07:31;;;;;;;8.00;7.20;;;32.40;91.40;;;;;;5052762;28;20222;-53
2021/03/31 01:10:02;;;;;;;7.75;7.05;;;32.40;91.30;;;;;;5067295;28;20225;-55
2021/03/31 01:12:38;;;;;;;7.05;6.47;;;32.50;91.30;;;;;;5065614;28;20542;-53
2021/03/31 01:15:10;;;;;;;7.50;6.78;;;32.60;91.20;;;;;;5063342;28;20193;-51
2021/03/31 01:17:44;;;;;;;6.80;6.20;;;32.60;90.90;;;;;;5051807;28;20208;-54
2021/03/31 01:20:30;;;;;;;6.95;6.35;;;32.70;90.60;;;;;;5009036;28;21570;-53
2021/03/31 01:23:31;;;;;;;7.28;6.68;;;32.70;90.30;;;;;;4970377;28;20342;-53
2021/03/31 01:26:04;;;;;;;7.93;7.22;;;32.80;90.00;;;;;;4932140;29;20295;-49
2021/03/31 01:29:22;;;;;;;8.60;7.65;;;32.90;89.40;;;;;;4942984;29;20466;-50
2021/03/31 01:32:02;;;;;;;6.88;6.22;;;32.90;88.10;;;;;;4940050;29;20235;-51
2021/03/31 01:34:42;;;;;;;7.32;6.65;;;33.00;87.70;;;;;;4944985;29;20213;-52
2021/03/31 01:37:15;;;;;;;6.85;6.25;;;33.00;87.80;;;;;;4945789;29;20213;-49
2021/03/31 01:39:46;;;;;;;7.47;6.78;;;33.10;88.10;;;;;;4946494;29;20245;-52
2021/03/31 01:42:17;;;;;;;8.90;8.07;;;33.10;87.90;;;;;;4946571;29;20198;-51
2021/03/31 01:44:48;;;;;;;8.35;7.53;;;33.10;87.00;;;;;;5010122;28;20206;-52
2021/03/31 01:47:19;;;;;;;8.38;7.78;;;33.20;86.50;;;;;;5040077;28;20209;-51
2021/03/31 01:49:51;;;;;;;8.68;7.88;;;33.20;84.80;;;;;;5055238;28;20194;-52
2021/03/31 01:52:22;;;;;;;8.35;7.72;;;33.20;85.10;;;;;;5055368;28;20197;-49
2021/03/31 01:54:53;;;;;;;9.40;8.60;;;33.30;85.30;;;;;;5065584;28;20209;-52
2021/03/31 01:57:24;;;;;;;8.57;7.78;;;33.30;84.10;;;;;;5061124;28;20202;-49
2021/03/31 01:59:55;;;;;;;8.63;7.82;;;33.40;83.60;;;;;;5051010;28;20741;-51
2021/03/31 02:02:26;;;;;;;9.10;8.02;;;33.40;84.00;;;;;;5061998;28;20286;-50
2021/03/31 02:04:58;;;;;;;8.30;7.50;;;33.40;82.80;;;;;;5065829;28;20583;-51
2021/03/31 02:07:28;;;;;;;8.25;7.55;;;33.50;82.80;;;;;;5062741;28;20206;-51
2021/03/31 02:09:58;;;;;;;7.60;7.00;;;33.50;82.60;;;;;;5060996;28;20644;-52
2021/03/31 02:12:29;;;;;;;7.28;6.57;;;33.50;82.70;;;;;;5051538;28;20194;-50
2021/03/31 02:15:00;;;;;;;8.82;7.93;;;33.70;83.10;;;;;;5057842;28;20201;-50
2021/03/31 02:17:30;;;;;;;9.73;8.82;;;33.70;81.90;;;;;;5065449;28;20205;-54
2021/03/31 02:20:02;;;;;;;8.95;7.93;;;33.80;82.00;;;;;;5066970;28;20213;-52
2021/03/31 02:22:33;;;;;;;7.45;6.85;;;33.80;81.90;;;;;;5065745;28;20286;-53
2021/03/31 02:25:04;;;;;;;6.13;5.63;;;33.90;82.50;;;;;;5023921;28;20666;-52
2021/03/31 02:27:36;;;;;;;7.13;6.53;;;34.00;82.90;;;;;;5022539;28;20768;-54
2021/03/31 02:30:08;;;;;;;6.57;6.00;;;34.10;82.20;;;;;;4955214;28;20201;-50
2021/03/31 02:32:38;;;;;;;7.10;6.35;;;34.20;82.00;;;;;;4956458;28;20759;-50
2021/03/31 02:35:11;;;;;;;6.78;6.18;;;34.30;81.30;;;;;;4892170;29;20212;-51
2021/03/31 02:37:42;;;;;;;7.38;6.65;;;34.40;80.70;;;;;;4893340;29;20259;-52
2021/03/31 02:40:13;;;;;;;7.90;7.20;;;34.50;79.80;;;;;;4907548;29;20243;-52
2021/03/31 02:42:44;;;;;;;8.68;7.88;;;34.60;79.30;;;;;;4887495;29;20215;-49
2021/03/31 02:45:16;;;;;;;8.25;7.45;;;34.60;78.60;;;;;;4869246;29;20234;-52
2021/03/31 02:47:47;;;;;;;7.47;6.82;;;34.70;78.70;;;;;;4871865;29;20257;-50
2021/03/31 02:50:20;;;;;;;6.85;6.15;;;34.80;78.70;;;;;;4870805;29;20384;-52
2021/03/31 02:52:51;;;;;;;6.70;5.97;;;34.80;77.70;;;;;;4871899;29;20216;-51
2021/03/31 02:55:22;;;;;;;6.15;5.65;;;34.90;77.70;;;;;;4882075;29;20340;-51
2021/03/31 02:57:53;;;;;;;5.72;5.22;;;34.90;77.70;;;;;;4927713;29;20294;-53
2021/03/31 03:00:24;;;;;;;5.85;5.35;;;34.90;77.60;;;;;;4967913;28;20233;-50
2021/03/31 03:02:54;;;;;;;5.22;4.72;;;35.00;77.90;;;;;;5022589;28;20233;-50
2021/03/31 03:05:26;;;;;;;5.57;5.07;;;35.00;78.00;;;;;;4965878;28;20207;-54
2021/03/31 03:07:56;;;;;;;5.70;5.20;;;35.00;77.90;;;;;;4965932;28;20314;-49
2021/03/31 03:10:26;;;;;;;6.25;4.93;;;35.10;76.70;;;;;;4966626;28;20209;-51
2021/03/31 03:12:58;;;;;;;6.47;5.32;;;35.00;77.10;;;;;;4967286;28;20646;-50
2021/03/31 03:15:29;;;;;;;5.13;4.70;;;35.00;76.00;;;;;;4973238;28;20617;-53
2021/03/31 03:18:00;;;;;;;4.90;4.40;;;35.00;76.60;;;;;;5021936;28;20806;-50
2021/03/31 03:20:31;;;;;;;4.72;4.32;;;34.90;76.80;;;;;;5018362;28;20310;-50
2021/03/31 03:23:02;;;;;;;4.63;4.32;;;35.00;77.20;;;;;;5019964;28;20219;-55
2021/03/31 03:25:32;;;;;;;4.85;4.45;;;35.00;77.20;;;;;;5020193;28;20202;-54
2021/03/31 03:28:03;;;;;;;4.45;4.10;;;35.10;77.20;;;;;;5022241;28;20234;-56
2021/03/31 03:30:36;;;;;;;4.82;4.43;;;35.20;77.10;;;;;;5018675;28;20249;-52
2021/03/31 03:33:07;;;;;;;9.85;5.43;;;35.30;77.20;;;;;;5010463;28;20200;-52
2021/03/31 03:35:38;;;;;;;5.40;5.00;;;35.50;76.80;;;;;;5024722;28;20208;-53
2021/03/31 03:38:09;;;;;;;5.28;4.78;;;35.60;76.30;;;;;;5063981;28;20197;-52
2021/03/31 03:40:40;;;;;;;5.22;4.72;;;35.60;76.60;;;;;;5049594;28;20295;-52
2021/03/31 03:43:10;;;;;;;4.80;4.40;;;35.80;76.30;;;;;;5057057;28;20548;-52
2021/03/31 03:45:41;;;;;;;10.60;5.07;;;35.80;76.30;;;;;;5012670;28;20270;-54
2021/03/31 03:48:12;;;;;;;5.50;5.03;;;36.00;75.50;;;;;;5006615;28;20203;-56
2021/03/31 03:50:43;;;;;;;6.57;5.97;;;36.10;74.50;;;;;;5019964;28;20237;-51
2021/03/31 03:53:14;;;;;;;7.35;6.57;;;36.10;71.80;;;;;;5007205;28;20211;-49
2021/03/31 03:55:45;;;;;;;6.40;5.78;;;36.20;70.70;;;;;;5019232;28;20227;-51
2021/03/31 03:58:15;;;;;;;6.85;6.22;;;36.10;70.40;;;;;;5006756;28;20276;-50
2021/03/31 04:00:45;;;;;;;7.90;6.53;;;36.10;69.80;;;;;;5006611;28;20844;-52
2021/03/31 04:03:16;;;;;;;6.45;5.95;;;36.10;69.00;;;;;;5006671;28;20256;-54
2021/03/31 04:05:47;;;;;;;6.05;5.55;;;36.10;70.50;;;;;;5006982;28;20207;-54
2021/03/31 04:08:18;;;;;;;6.88;6.10;;;36.10;70.90;;;;;;5012145;28;20590;-50
2021/03/31 04:10:52;;;;;;;5.78;5.28;;;36.10;69.70;;;;;;5037457;28;20260;-54
2021/03/31 04:13:22;;;;;;;5.03;4.63;;;36.10;69.70;;;;;;5063168;28;20546;-50
2021/03/31 04:15:58;;;;;;;6.00;5.45;;;36.10;70.70;;;;;;5064137;28;20219;-52
2021/03/31 04:18:30;;;;;;;6.18;5.57;;;36.10;70.30;;;;;;5064453;28;20201;-49
2021/03/31 04:21:01;;;;;;;5.97;5.47;;;36.10;69.70;;;;;;5064328;28;20190;-49
2021/03/31 04:23:32;;;;;;;6.30;5.75;;;36.10;69.40;;;;;;5021085;28;20301;-49
2021/03/31 04:26:02;;;;;;;5.68;5.18;;;36.00;69.30;;;;;;4962729;28;20827;-50
2021/03/31 04:28:32;;;;;;;5.72;5.28;;;36.00;70.00;;;;;;4962174;28;20218;-50
2021/03/31 04:31:03;;;;;;;5.82;5.25;;;36.00;70.00;;;;;;4963047;28;20771;-49
2021/03/31 04:33:34;;;;;;;7.25;6.53;;;36.00;70.20;;;;;;4904817;29;20258;-52
2021/03/31 04:36:07;;;;;;;8.32;7.50;;;36.00;68.70;;;;;;4895203;29;20226;-49
2021/03/31 04:38:38;;;;;;;7.72;6.85;;;36.10;69.10;;;;;;4906048;29;20216;-48
2021/03/31 04:41:08;;;;;;;6.90;6.30;;;36.20;69.20;;;;;;4851755;29;20209;-50
2021/03/31 04:43:39;;;;;;;6.70;6.07;;;36.20;69.10;;;;;;4851897;29;20213;-52
2021/03/31 04:46:09;;;;;;;6.50;5.90;;;36.20;68.40;;;;;;4851929;29;20265;-50
2021/03/31 04:48:40;;;;;;;5.70;5.20;;;36.30;69.60;;;;;;4895932;29;20210;-48
2021/03/31 04:51:13;;;;;;;5.43;4.93;;;36.30;68.90;;;;;;4910293;29;20234;-50
2021/03/31 04:53:43;;;;;;;5.55;5.05;;;36.20;69.20;;;;;;4911185;29;20207;-52
2021/03/31 04:56:14;;;;;;;5.82;5.30;;;36.20;69.60;;;;;;4919376;28;20300;-51
2021/03/31 04:58:48;;;;;;;5.95;5.38;;;36.10;69.10;;;;;;5014498;28;20213;-55
2021/03/31 05:01:19;;;;;;;5.40;4.90;;;36.10;69.00;;;;;;5026918;28;20975;-49
2021/03/31 05:03:49;;;;;;;5.68;5.20;;;36.10;69.40;;;;;;5027885;28;20244;-51
2021/03/31 05:06:21;;;;;;;5.68;4.60;;;36.00;68.50;;;;;;5027630;28;20621;-50
2021/03/31 05:08:51;;;;;;;4.97;4.57;;;36.00;69.20;;;;;;5027635;28;20241;-54
2021/03/31 05:11:22;;;;;;;5.82;5.32;;;36.00;69.60;;;;;;5032398;28;20214;-52
2021/03/31 05:13:52;;;;;;;5.03;4.53;;;36.10;69.00;;;;;;5053331;28;20193;-52
2021/03/31 05:16:23;;;;;;;5.60;5.10;;;36.10;69.20;;;;;;5053310;28;20609;-54
2021/03/31 05:18:53;;;;;;;5.85;4.70;;;36.20;68.70;;;;;;5056150;28;20213;-52
2021/03/31 05:21:25;;;;;;;4.25;3.90;;;36.20;69.20;;;;;;5068195;28;20657;-51
2021/03/31 05:23:55;;;;;;;5.15;4.75;;;36.20;69.20;;;;;;5067663;28;20260;-52
2021/03/31 05:26:26;;;;;;;5.18;4.68;;;36.30;68.10;;;;;;5062545;28;20205;-53
2021/03/31 05:28:56;;;;;;;5.05;4.40;;;36.30;68.40;;;;;;5065890;28;20205;-52
2021/03/31 05:31:26;;;;;;;6.28;5.15;;;36.40;68.50;;;;;;5061225;28;20206;-51
2021/03/31 05:33:57;;;;;;;5.05;4.43;;;36.40;68.30;;;;;;5054301;28;20218;-52
2021/03/31 05:36:29;;;;;;;5.50;5.00;;;36.40;68.50;;;;;;5059925;28;20205;-53
2021/03/31 05:39:00;;;;;;;6.35;5.75;;;36.40;67.90;;;;;;5052127;28;20210;-52
2021/03/31 05:41:31;;;;;;;6.18;5.45;;;36.40;67.50;;;;;;5066955;28;20643;-48
2021/03/31 05:44:02;;;;;;;6.15;5.60;;;36.40;67.80;;;;;;5024519;28;20207;-54
2021/03/31 05:46:32;;;;;;;6.30;5.72;;;36.40;68.20;;;;;;5013980;28;20206;-51
2021/03/31 05:49:03;;;;;;;6.63;6.00;;;36.30;67.50;;;;;;5015927;28;20242;-52
2021/03/31 05:51:35;;;;;;;7.20;6.45;;;36.30;68.20;;;;;;5010780;28;20273;-50
2021/03/31 05:54:09;;;;;;;6.53;5.93;;;36.30;67.40;;;;;;5009704;28;20202;-53
2021/03/31 05:56:40;;;;;;;6.22;5.72;;;36.30;67.20;;;;;;5012017;28;20207;-52
2021/03/31 05:59:12;;;;;;;8.05;7.35;;;36.30;66.70;;;;;;5024399;28;20219;-50
2021/03/31 06:01:43;;;;;;;9.02;8.13;;;36.30;67.70;;;;;;5023608;28;20254;-51
2021/03/31 06:04:13;;;;;;;8.48;7.70;;;36.40;67.80;;;;;;5021476;28;20211;-50
2021/03/31 06:06:45;;;;;;;10.05;8.90;;;36.40;67.00;;;;;;5022149;28;20237;-51
2021/03/31 06:09:15;;;;;;;10.48;9.57;;;36.40;66.90;;;;;;5048953;28;20780;-52
2021/03/31 06:11:50;;;;;;;9.43;8.68;;;36.30;66.40;;;;;;5051696;28;20198;-50
2021/03/31 06:14:33;;;;;;;10.35;9.45;;;36.30;66.90;;;;;;5051027;28;20202;-54
2021/03/31 06:17:06;;;;;;;11.10;10.10;;;36.30;66.20;;;;;;5066545;28;20197;-51
2021/03/31 06:19:38;;;;;;;10.77;9.82;;;36.30;66.00;;;;;;5062041;28;20627;-51
2021/03/31 06:22:19;;;;;;;12.23;11.23;;;36.30;66.30;;;;;;5023699;28;20357;-49
2021/03/31 06:25:02;;;;;;;11.70;10.70;;;36.20;66.60;;;;;;5013839;28;20684;-49
2021/03/31 06:27:33;;;;;;;12.20;11.30;;;36.20;67.30;;;;;;5022600;28;20702;-53
2021/03/31 06:30:05;;;;;;;11.77;10.88;;;36.20;67.00;;;;;;5024616;28;20191;-50
2021/03/31 06:32:38;;;;;;;12.40;11.30;;;36.20;66.10;;;;;;5010900;28;20662;-53
